sensor_id;sensor_type;location;lat;lon;timestamp;temperature;humidity
6462;DHT22;3264;42.862;25.098;2024-03-08T00:00:39;5.80;99.90
6462;DHT22;3264;42.862;25.098;2024-03-08T00:03:09;5.80;99.90
6462;DHT22;3264;42.862;25.098;2024-03-08T00:05:38;5.80;99.90
6462;DHT22;3264;42.862;25.098;2024-03-08T00:08:07;5.80;99.90
6462;DHT22;3264;42.862;25.098;2024-03-08T00:10:36;5.80;99.90
6462;DHT22;3264;42.862;25.098;2024-03-08T00:13:05;5.90;99.90
6462;DHT22;3264;42.862;25.098;2024-03-08T00:15:33;5.90;99.90
6462;DHT22;3264;42.862;25.098;2024-03-08T00:18:03;5.90;99.90
6462;DHT22;3264;42.862;25.098;2024-03-08T00:20:32;5.90;99.90
6462;DHT22;3264;42.862;25.098;2024-03-08T00:23:00;5.90;99.90
6462;DHT22;3264;42.862;25.098;2024-03-08T00:25:28;5.90;99.90
6462;DHT22;3264;42.862;25.098;2024-03-08T00:27:56;5.90;99.90
6462;DHT22;3264;42.862;25.098;2024-03-08T00:30:26;5.90;99.90
6462;DHT22;3264;42.862;25.098;2024-03-08T00:32:55;5.90;99.90
6462;DHT22;3264;42.862;25.098;2024-03-08T00:35:26;5.90;99.90
6462;DHT22;3264;42.862;25.098;2024-03-08T00:37:54;5.90;99.90
6462;DHT22;3264;42.862;25.098;2024-03-08T00:40:23;5.90;99.90
6462;DHT22;3264;42.862;25.098;2024-03-08T00:42:51;5.90;99.90
6462;DHT22;3264;42.862;25.098;2024-03-08T00:45:20;5.90;99.90
6462;DHT22;3264;42.862;25.098;2024-03-08T00:47:49;5.90;99.90
6462;DHT22;3264;42.862;25.098;2024-03-08T00:50:17;5.90;99.90
6462;DHT22;3264;42.862;25.098;2024-03-08T00:52:46;5.90;99.90
6462;DHT22;3264;42.862;25.098;2024-03-08T00:55:15;5.80;99.90
6462;DHT22;3264;42.862;25.098;2024-03-08T00:57:44;5.80;99.90
6462;DHT22;3264;42.862;25.098;2024-03-08T01:00:12;5.80;99.90
6462;DHT22;3264;42.862;25.098;2024-03-08T01:02:40;5.80;99.90
6462;DHT22;3264;42.862;25.098;2024-03-08T01:05:08;5.90;99.90
6462;DHT22;3264;42.862;25.098;2024-03-08T01:07:37;5.90;99.90
6462;DHT22;3264;42.862;25.098;2024-03-08T01:10:08;5.90;99.90
6462;DHT22;3264;42.862;25.098;2024-03-08T01:12:37;5.90;99.90
6462;DHT22;3264;42.862;25.098;2024-03-08T01:15:06;5.90;99.90
6462;DHT22;3264;42.862;25.098;2024-03-08T01:17:35;5.90;99.90
6462;DHT22;3264;42.862;25.098;2024-03-08T01:20:03;5.90;99.90
6462;DHT22;3264;42.862;25.098;2024-03-08T01:22:31;6.00;99.90
6462;DHT22;3264;42.862;25.098;2024-03-08T01:24:59;5.90;99.90
6462;DHT22;3264;42.862;25.098;2024-03-08T01:27:29;5.90;99.90
6462;DHT22;3264;42.862;25.098;2024-03-08T01:29:57;5.90;99.90
6462;DHT22;3264;42.862;25.098;2024-03-08T01:32:25;6.00;99.90
6462;DHT22;3264;42.862;25.098;2024-03-08T01:34:54;6.00;99.90
6462;DHT22;3264;42.862;25.098;2024-03-08T01:37:23;6.00;99.90
6462;DHT22;3264;42.862;25.098;2024-03-08T01:39:51;5.90;99.90
6462;DHT22;3264;42.862;25.098;2024-03-08T01:42:20;5.90;99.90
6462;DHT22;3264;42.862;25.098;2024-03-08T01:44:50;5.80;99.90
6462;DHT22;3264;42.862;25.098;2024-03-08T01:47:19;5.80;99.90
6462;DHT22;3264;42.862;25.098;2024-03-08T01:49:49;5.90;99.90
6462;DHT22;3264;42.862;25.098;2024-03-08T01:52:19;5.90;99.90
6462;DHT22;3264;42.862;25.098;2024-03-08T01:54:47;5.90;99.90
6462;DHT22;3264;42.862;25.098;2024-03-08T01:57:16;5.90;99.90
6462;DHT22;3264;42.862;25.098;2024-03-08T01:59:43;5.90;99.90
6462;DHT22;3264;42.862;25.098;2024-03-08T02:02:15;5.90;99.90
6462;DHT22;3264;42.862;25.098;2024-03-08T02:04:46;5.90;99.90
6462;DHT22;3264;42.862;25.098;2024-03-08T02:07:15;5.90;99.90
6462;DHT22;3264;42.862;25.098;2024-03-08T02:09:43;5.90;99.90
6462;DHT22;3264;42.862;25.098;2024-03-08T02:12:11;5.90;99.90
6462;DHT22;3264;42.862;25.098;2024-03-08T02:14:40;5.90;99.90
6462;DHT22;3264;42.862;25.098;2024-03-08T02:17:08;5.90;99.90
6462;DHT22;3264;42.862;25.098;2024-03-08T02:19:40;5.90;99.90
6462;DHT22;3264;42.862;25.098;2024-03-08T02:22:10;6.00;99.90
6462;DHT22;3264;42.862;25.098;2024-03-08T02:24:38;6.00;99.90
6462;DHT22;3264;42.862;25.098;2024-03-08T02:27:06;6.00;99.90
6462;DHT22;3264;42.862;25.098;2024-03-08T02:29:35;5.90;99.90
6462;DHT22;3264;42.862;25.098;2024-03-08T02:32:04;6.00;99.90
6462;DHT22;3264;42.862;25.098;2024-03-08T02:34:32;6.00;99.90
6462;DHT22;3264;42.862;25.098;2024-03-08T02:37:00;6.00;99.90
6462;DHT22;3264;42.862;25.098;2024-03-08T02:39:31;6.00;99.90
6462;DHT22;3264;42.862;25.098;2024-03-08T02:42:00;6.00;99.90
6462;DHT22;3264;42.862;25.098;2024-03-08T02:44:28;6.10;99.90
6462;DHT22;3264;42.862;25.098;2024-03-08T02:46:56;6.10;99.90
6462;DHT22;3264;42.862;25.098;2024-03-08T02:49:24;6.10;99.90
6462;DHT22;3264;42.862;25.098;2024-03-08T02:51:52;6.10;99.90
6462;DHT22;3264;42.862;25.098;2024-03-08T02:54:21;6.00;99.90
6462;DHT22;3264;42.862;25.098;2024-03-08T02:56:51;6.00;99.90
6462;DHT22;3264;42.862;25.098;2024-03-08T02:59:19;6.00;99.90
6462;DHT22;3264;42.862;25.098;2024-03-08T03:01:48;5.90;99.90
6462;DHT22;3264;42.862;25.098;2024-03-08T03:04:16;5.90;99.90
6462;DHT22;3264;42.862;25.098;2024-03-08T03:06:44;6.00;99.90
6462;DHT22;3264;42.862;25.098;2024-03-08T03:09:12;6.00;99.90
6462;DHT22;3264;42.862;25.098;2024-03-08T03:11:44;6.00;99.90
6462;DHT22;3264;42.862;25.098;2024-03-08T03:14:13;6.00;99.90
6462;DHT22;3264;42.862;25.098;2024-03-08T03:16:42;6.00;99.90
6462;DHT22;3264;42.862;25.098;2024-03-08T03:19:11;6.00;99.90
6462;DHT22;3264;42.862;25.098;2024-03-08T03:21:41;6.00;99.90
6462;DHT22;3264;42.862;25.098;2024-03-08T03:24:10;6.00;99.90
6462;DHT22;3264;42.862;25.098;2024-03-08T03:26:38;6.00;99.90
6462;DHT22;3264;42.862;25.098;2024-03-08T03:29:06;6.00;99.90
6462;DHT22;3264;42.862;25.098;2024-03-08T03:31:36;6.10;99.90
6462;DHT22;3264;42.862;25.098;2024-03-08T03:34:04;6.00;99.90
6462;DHT22;3264;42.862;25.098;2024-03-08T03:36:35;6.00;99.90
6462;DHT22;3264;42.862;25.098;2024-03-08T03:39:04;6.00;99.90
6462;DHT22;3264;42.862;25.098;2024-03-08T03:41:37;6.00;99.90
6462;DHT22;3264;42.862;25.098;2024-03-08T03:44:06;6.00;99.90
6462;DHT22;3264;42.862;25.098;2024-03-08T03:46:36;6.00;99.90
6462;DHT22;3264;42.862;25.098;2024-03-08T03:49:03;6.00;99.90
6462;DHT22;3264;42.862;25.098;2024-03-08T03:51:32;6.00;99.90
6462;DHT22;3264;42.862;25.098;2024-03-08T03:54:01;6.00;99.90
6462;DHT22;3264;42.862;25.098;2024-03-08T03:56:29;6.00;99.90
6462;DHT22;3264;42.862;25.098;2024-03-08T03:58:58;6.10;99.90
6462;DHT22;3264;42.862;25.098;2024-03-08T04:01:26;6.10;99.90
6462;DHT22;3264;42.862;25.098;2024-03-08T04:03:56;6.10;99.90
6462;DHT22;3264;42.862;25.098;2024-03-08T04:06:25;6.10;99.90
6462;DHT22;3264;42.862;25.098;2024-03-08T04:08:53;6.10;99.90
6462;DHT22;3264;42.862;25.098;2024-03-08T04:11:22;6.10;99.90
6462;DHT22;3264;42.862;25.098;2024-03-08T04:13:50;6.10;99.90
6462;DHT22;3264;42.862;25.098;2024-03-08T04:16:19;6.10;99.90
6462;DHT22;3264;42.862;25.098;2024-03-08T04:18:49;6.10;99.90
6462;DHT22;3264;42.862;25.098;2024-03-08T04:21:19;6.10;99.90
6462;DHT22;3264;42.862;25.098;2024-03-08T04:23:47;6.10;99.90
6462;DHT22;3264;42.862;25.098;2024-03-08T04:26:16;6.00;99.90
6462;DHT22;3264;42.862;25.098;2024-03-08T04:28:45;6.00;99.90
6462;DHT22;3264;42.862;25.098;2024-03-08T04:31:13;5.90;99.90
6462;DHT22;3264;42.862;25.098;2024-03-08T04:33:42;6.00;99.90
6462;DHT22;3264;42.862;25.098;2024-03-08T04:36:18;6.00;99.90
6462;DHT22;3264;42.862;25.098;2024-03-08T04:38:46;6.00;99.90
6462;DHT22;3264;42.862;25.098;2024-03-08T04:41:14;6.00;99.90
6462;DHT22;3264;42.862;25.098;2024-03-08T04:43:42;6.10;99.90
6462;DHT22;3264;42.862;25.098;2024-03-08T04:46:11;6.10;99.90
6462;DHT22;3264;42.862;25.098;2024-03-08T04:48:39;6.10;99.90
6462;DHT22;3264;42.862;25.098;2024-03-08T04:51:08;6.20;99.90
6462;DHT22;3264;42.862;25.098;2024-03-08T04:53:38;6.20;99.90
6462;DHT22;3264;42.862;25.098;2024-03-08T04:56:07;6.10;99.90
6462;DHT22;3264;42.862;25.098;2024-03-08T04:58:36;6.10;99.90
6462;DHT22;3264;42.862;25.098;2024-03-08T05:01:04;6.10;99.90
6462;DHT22;3264;42.862;25.098;2024-03-08T05:03:32;6.10;99.90
6462;DHT22;3264;42.862;25.098;2024-03-08T05:06:02;6.10;99.90
6462;DHT22;3264;42.862;25.098;2024-03-08T05:08:30;6.20;99.90
6462;DHT22;3264;42.862;25.098;2024-03-08T05:11:00;6.20;99.90
6462;DHT22;3264;42.862;25.098;2024-03-08T05:13:30;6.20;99.90
6462;DHT22;3264;42.862;25.098;2024-03-08T05:15:59;6.20;99.90
6462;DHT22;3264;42.862;25.098;2024-03-08T05:18:27;6.20;99.90
6462;DHT22;3264;42.862;25.098;2024-03-08T05:20:57;6.20;99.90
6462;DHT22;3264;42.862;25.098;2024-03-08T05:23:26;6.20;99.90
6462;DHT22;3264;42.862;25.098;2024-03-08T05:25:54;6.10;99.90
6462;DHT22;3264;42.862;25.098;2024-03-08T05:28:24;6.10;99.90
6462;DHT22;3264;42.862;25.098;2024-03-08T05:30:52;6.10;99.90
6462;DHT22;3264;42.862;25.098;2024-03-08T05:33:22;6.10;99.90
6462;DHT22;3264;42.862;25.098;2024-03-08T05:35:50;6.10;99.90
6462;DHT22;3264;42.862;25.098;2024-03-08T05:38:18;6.20;99.90
6462;DHT22;3264;42.862;25.098;2024-03-08T05:40:47;6.20;99.90
6462;DHT22;3264;42.862;25.098;2024-03-08T05:43:15;6.20;99.90
6462;DHT22;3264;42.862;25.098;2024-03-08T05:45:48;6.20;99.90
6462;DHT22;3264;42.862;25.098;2024-03-08T05:48:16;6.20;99.90
6462;DHT22;3264;42.862;25.098;2024-03-08T05:50:45;6.20;99.90
6462;DHT22;3264;42.862;25.098;2024-03-08T05:53:13;6.20;99.90
6462;DHT22;3264;42.862;25.098;2024-03-08T05:55:40;6.30;99.90
6462;DHT22;3264;42.862;25.098;2024-03-08T05:58:09;6.30;99.90
6462;DHT22;3264;42.862;25.098;2024-03-08T06:00:37;6.30;99.90
6462;DHT22;3264;42.862;25.098;2024-03-08T06:03:08;6.30;99.90
6462;DHT22;3264;42.862;25.098;2024-03-08T06:05:38;6.20;99.90
6462;DHT22;3264;42.862;25.098;2024-03-08T06:08:07;6.20;99.90
6462;DHT22;3264;42.862;25.098;2024-03-08T06:10:36;6.20;99.90
6462;DHT22;3264;42.862;25.098;2024-03-08T06:13:15;6.30;99.90
6462;DHT22;3264;42.862;25.098;2024-03-08T06:15:43;6.30;99.90
6462;DHT22;3264;42.862;25.098;2024-03-08T06:18:13;6.30;99.90
6462;DHT22;3264;42.862;25.098;2024-03-08T06:20:42;6.30;99.90
6462;DHT22;3264;42.862;25.098;2024-03-08T06:23:13;6.40;99.90
6462;DHT22;3264;42.862;25.098;2024-03-08T06:25:43;6.40;99.90
6462;DHT22;3264;42.862;25.098;2024-03-08T06:28:12;6.40;99.90
6462;DHT22;3264;42.862;25.098;2024-03-08T06:30:41;6.40;99.90
6462;DHT22;3264;42.862;25.098;2024-03-08T06:33:09;6.40;99.90
6462;DHT22;3264;42.862;25.098;2024-03-08T06:35:38;6.40;99.90
6462;DHT22;3264;42.862;25.098;2024-03-08T06:38:11;6.40;99.90
6462;DHT22;3264;42.862;25.098;2024-03-08T06:40:42;6.40;99.90
6462;DHT22;3264;42.862;25.098;2024-03-08T06:43:10;6.30;99.90
6462;DHT22;3264;42.862;25.098;2024-03-08T06:45:42;6.30;99.90
6462;DHT22;3264;42.862;25.098;2024-03-08T06:48:15;6.30;99.90
6462;DHT22;3264;42.862;25.098;2024-03-08T06:50:44;6.40;99.90
6462;DHT22;3264;42.862;25.098;2024-03-08T06:53:13;6.50;99.90
6462;DHT22;3264;42.862;25.098;2024-03-08T06:55:41;6.50;99.90
6462;DHT22;3264;42.862;25.098;2024-03-08T06:58:11;6.60;99.90
6462;DHT22;3264;42.862;25.098;2024-03-08T07:00:39;6.60;99.90
6462;DHT22;3264;42.862;25.098;2024-03-08T07:03:09;6.60;99.90
6462;DHT22;3264;42.862;25.098;2024-03-08T07:05:39;6.60;99.90
6462;DHT22;3264;42.862;25.098;2024-03-08T07:08:10;6.70;99.90
6462;DHT22;3264;42.862;25.098;2024-03-08T07:10:38;6.60;99.90
6462;DHT22;3264;42.862;25.098;2024-03-08T07:13:08;6.60;99.90
6462;DHT22;3264;42.862;25.098;2024-03-08T07:15:37;6.60;99.90
6462;DHT22;3264;42.862;25.098;2024-03-08T07:18:06;6.70;99.90
6462;DHT22;3264;42.862;25.098;2024-03-08T07:20:35;6.70;99.90
6462;DHT22;3264;42.862;25.098;2024-03-08T07:23:11;6.80;99.90
6462;DHT22;3264;42.862;25.098;2024-03-08T07:25:59;6.70;99.90
6462;DHT22;3264;42.862;25.098;2024-03-08T07:28:28;6.70;99.90
6462;DHT22;3264;42.862;25.098;2024-03-08T07:30:58;6.70;99.90
6462;DHT22;3264;42.862;25.098;2024-03-08T07:33:40;6.70;99.90
6462;DHT22;3264;42.862;25.098;2024-03-08T07:36:07;6.80;99.90
6462;DHT22;3264;42.862;25.098;2024-03-08T07:38:38;6.70;99.90
6462;DHT22;3264;42.862;25.098;2024-03-08T07:41:07;6.50;99.90
6462;DHT22;3264;42.862;25.098;2024-03-08T07:43:35;6.50;99.90
6462;DHT22;3264;42.862;25.098;2024-03-08T07:46:04;6.60;99.90
6462;DHT22;3264;42.862;25.098;2024-03-08T07:48:32;6.60;99.90
6462;DHT22;3264;42.862;25.098;2024-03-08T07:51:01;6.50;99.90
6462;DHT22;3264;42.862;25.098;2024-03-08T07:53:29;6.50;99.90
6462;DHT22;3264;42.862;25.098;2024-03-08T07:55:58;6.60;99.90
6462;DHT22;3264;42.862;25.098;2024-03-08T07:58:27;6.60;99.90
6462;DHT22;3264;42.862;25.098;2024-03-08T08:00:56;6.50;99.90
6462;DHT22;3264;42.862;25.098;2024-03-08T08:03:25;6.50;99.90
6462;DHT22;3264;42.862;25.098;2024-03-08T08:05:53;6.60;99.90
6462;DHT22;3264;42.862;25.098;2024-03-08T08:08:21;6.60;99.90
6462;DHT22;3264;42.862;25.098;2024-03-08T08:10:50;6.60;99.90
6462;DHT22;3264;42.862;25.098;2024-03-08T08:13:19;6.50;99.90
6462;DHT22;3264;42.862;25.098;2024-03-08T08:15:47;6.50;99.90
6462;DHT22;3264;42.862;25.098;2024-03-08T08:18:16;6.40;99.90
6462;DHT22;3264;42.862;25.098;2024-03-08T08:20:46;6.40;99.90
6462;DHT22;3264;42.862;25.098;2024-03-08T08:23:15;6.50;99.90
6462;DHT22;3264;42.862;25.098;2024-03-08T08:25:44;6.50;99.90
6462;DHT22;3264;42.862;25.098;2024-03-08T08:28:12;6.50;99.90
6462;DHT22;3264;42.862;25.098;2024-03-08T08:30:42;6.50;99.90
6462;DHT22;3264;42.862;25.098;2024-03-08T08:33:10;6.50;99.90
6462;DHT22;3264;42.862;25.098;2024-03-08T08:35:39;6.40;99.90
6462;DHT22;3264;42.862;25.098;2024-03-08T08:38:07;6.40;99.90
6462;DHT22;3264;42.862;25.098;2024-03-08T08:40:35;6.30;99.90
6462;DHT22;3264;42.862;25.098;2024-03-08T08:43:04;6.40;99.90
6462;DHT22;3264;42.862;25.098;2024-03-08T08:45:31;6.30;99.90
6462;DHT22;3264;42.862;25.098;2024-03-08T08:48:02;6.40;99.90
6462;DHT22;3264;42.862;25.098;2024-03-08T08:50:32;6.50;99.90
6462;DHT22;3264;42.862;25.098;2024-03-08T08:53:00;6.40;99.90
6462;DHT22;3264;42.862;25.098;2024-03-08T08:55:29;6.40;99.90
6462;DHT22;3264;42.862;25.098;2024-03-08T08:57:58;6.40;99.90
6462;DHT22;3264;42.862;25.098;2024-03-08T09:00:26;6.50;99.90
6462;DHT22;3264;42.862;25.098;2024-03-08T09:02:57;6.50;99.90
6462;DHT22;3264;42.862;25.098;2024-03-08T09:05:26;6.50;99.90
6462;DHT22;3264;42.862;25.098;2024-03-08T09:07:55;6.60;99.90
6462;DHT22;3264;42.862;25.098;2024-03-08T09:10:23;6.60;99.90
6462;DHT22;3264;42.862;25.098;2024-03-08T09:12:52;6.60;99.90
6462;DHT22;3264;42.862;25.098;2024-03-08T09:15:21;6.60;99.90
6462;DHT22;3264;42.862;25.098;2024-03-08T09:17:49;6.60;99.90
6462;DHT22;3264;42.862;25.098;2024-03-08T09:20:17;6.60;99.90
6462;DHT22;3264;42.862;25.098;2024-03-08T09:22:47;6.60;99.90
6462;DHT22;3264;42.862;25.098;2024-03-08T09:25:14;6.50;99.90
6462;DHT22;3264;42.862;25.098;2024-03-08T09:27:43;6.50;99.90
6462;DHT22;3264;42.862;25.098;2024-03-08T09:30:12;6.50;99.90
6462;DHT22;3264;42.862;25.098;2024-03-08T09:32:41;6.50;99.90
6462;DHT22;3264;42.862;25.098;2024-03-08T09:35:11;6.40;99.90
6462;DHT22;3264;42.862;25.098;2024-03-08T09:37:38;6.40;99.90
6462;DHT22;3264;42.862;25.098;2024-03-08T09:40:08;6.40;99.90
6462;DHT22;3264;42.862;25.098;2024-03-08T09:42:40;6.40;99.90
6462;DHT22;3264;42.862;25.098;2024-03-08T09:45:10;6.40;99.90
6462;DHT22;3264;42.862;25.098;2024-03-08T09:47:42;6.40;99.90
6462;DHT22;3264;42.862;25.098;2024-03-08T09:50:11;6.50;99.90
6462;DHT22;3264;42.862;25.098;2024-03-08T09:52:39;6.50;99.90
6462;DHT22;3264;42.862;25.098;2024-03-08T09:55:10;6.40;99.90
6462;DHT22;3264;42.862;25.098;2024-03-08T09:57:40;6.40;99.90
6462;DHT22;3264;42.862;25.098;2024-03-08T10:00:09;6.40;99.90
6462;DHT22;3264;42.862;25.098;2024-03-08T10:02:51;6.40;99.90
6462;DHT22;3264;42.862;25.098;2024-03-08T10:05:19;6.40;99.90
6462;DHT22;3264;42.862;25.098;2024-03-08T10:07:49;6.40;99.90
6462;DHT22;3264;42.862;25.098;2024-03-08T10:10:19;6.40;99.90
6462;DHT22;3264;42.862;25.098;2024-03-08T10:12:48;6.50;99.90
6462;DHT22;3264;42.862;25.098;2024-03-08T10:15:16;6.50;99.90
6462;DHT22;3264;42.862;25.098;2024-03-08T10:17:46;6.40;99.90
6462;DHT22;3264;42.862;25.098;2024-03-08T10:20:15;6.40;99.90
6462;DHT22;3264;42.862;25.098;2024-03-08T10:22:44;6.50;99.90
6462;DHT22;3264;42.862;25.098;2024-03-08T10:25:13;6.50;99.90
6462;DHT22;3264;42.862;25.098;2024-03-08T10:27:43;6.60;99.90
6462;DHT22;3264;42.862;25.098;2024-03-08T10:30:12;6.60;99.90
6462;DHT22;3264;42.862;25.098;2024-03-08T10:32:42;6.60;99.90
6462;DHT22;3264;42.862;25.098;2024-03-08T10:35:10;6.70;99.90
6462;DHT22;3264;42.862;25.098;2024-03-08T10:37:44;6.80;99.90
6462;DHT22;3264;42.862;25.098;2024-03-08T10:40:17;6.70;99.90
6462;DHT22;3264;42.862;25.098;2024-03-08T10:42:52;6.70;99.90
6462;DHT22;3264;42.862;25.098;2024-03-08T10:45:30;6.70;99.90
6462;DHT22;3264;42.862;25.098;2024-03-08T10:48:16;6.70;99.90
6462;DHT22;3264;42.862;25.098;2024-03-08T10:50:49;6.80;99.90
6462;DHT22;3264;42.862;25.098;2024-03-08T10:53:19;6.70;99.90
6462;DHT22;3264;42.862;25.098;2024-03-08T10:55:47;6.70;99.90
6462;DHT22;3264;42.862;25.098;2024-03-08T10:58:21;6.60;99.90
6462;DHT22;3264;42.862;25.098;2024-03-08T11:00:49;6.70;99.90
6462;DHT22;3264;42.862;25.098;2024-03-08T11:03:45;6.70;99.90
6462;DHT22;3264;42.862;25.098;2024-03-08T11:06:16;6.80;99.90
6462;DHT22;3264;42.862;25.098;2024-03-08T11:08:45;6.70;99.90
6462;DHT22;3264;42.862;25.098;2024-03-08T11:11:29;6.80;99.90
6462;DHT22;3264;42.862;25.098;2024-03-08T11:14:03;6.80;99.90
6462;DHT22;3264;42.862;25.098;2024-03-08T11:16:39;6.70;99.90
6462;DHT22;3264;42.862;25.098;2024-03-08T11:19:28;6.60;99.90
6462;DHT22;3264;42.862;25.098;2024-03-08T11:21:59;6.60;99.90
6462;DHT22;3264;42.862;25.098;2024-03-08T11:24:27;6.60;99.90
6462;DHT22;3264;42.862;25.098;2024-03-08T11:26:57;6.60;99.90
6462;DHT22;3264;42.862;25.098;2024-03-08T11:29:36;6.50;99.90
6462;DHT22;3264;42.862;25.098;2024-03-08T11:32:08;6.50;99.90
6462;DHT22;3264;42.862;25.098;2024-03-08T11:34:36;6.50;99.90
6462;DHT22;3264;42.862;25.098;2024-03-08T11:37:05;6.50;99.90
6462;DHT22;3264;42.862;25.098;2024-03-08T11:39:36;6.50;99.90
6462;DHT22;3264;42.862;25.098;2024-03-08T11:42:05;6.50;99.90
6462;DHT22;3264;42.862;25.098;2024-03-08T11:44:35;6.60;99.90
6462;DHT22;3264;42.862;25.098;2024-03-08T11:47:09;6.60;99.90
6462;DHT22;3264;42.862;25.098;2024-03-08T11:49:37;6.60;99.90
6462;DHT22;3264;42.862;25.098;2024-03-08T11:52:09;6.60;99.90
6462;DHT22;3264;42.862;25.098;2024-03-08T11:54:38;6.50;99.90
6462;DHT22;3264;42.862;25.098;2024-03-08T11:57:07;6.60;99.90
6462;DHT22;3264;42.862;25.098;2024-03-08T11:59:38;6.60;99.90
6462;DHT22;3264;42.862;25.098;2024-03-08T12:02:07;6.60;99.90
6462;DHT22;3264;42.862;25.098;2024-03-08T12:04:36;6.50;99.90
6462;DHT22;3264;42.862;25.098;2024-03-08T12:07:05;6.50;99.90
6462;DHT22;3264;42.862;25.098;2024-03-08T12:09:38;6.50;99.90
6462;DHT22;3264;42.862;25.098;2024-03-08T12:12:08;6.50;99.90
6462;DHT22;3264;42.862;25.098;2024-03-08T12:14:39;6.60;99.90
6462;DHT22;3264;42.862;25.098;2024-03-08T12:17:11;6.60;99.90
6462;DHT22;3264;42.862;25.098;2024-03-08T12:19:40;6.50;99.90
6462;DHT22;3264;42.862;25.098;2024-03-08T12:22:15;6.50;99.90
6462;DHT22;3264;42.862;25.098;2024-03-08T12:24:43;6.70;99.90
6462;DHT22;3264;42.862;25.098;2024-03-08T12:27:29;6.70;99.90
6462;DHT22;3264;42.862;25.098;2024-03-08T12:29:59;6.70;99.90
6462;DHT22;3264;42.862;25.098;2024-03-08T12:32:27;6.70;99.90
6462;DHT22;3264;42.862;25.098;2024-03-08T12:34:56;6.70;99.90
6462;DHT22;3264;42.862;25.098;2024-03-08T12:37:25;6.70;99.90
6462;DHT22;3264;42.862;25.098;2024-03-08T12:39:55;6.70;99.90
6462;DHT22;3264;42.862;25.098;2024-03-08T12:42:25;6.60;99.90
6462;DHT22;3264;42.862;25.098;2024-03-08T12:44:54;6.60;99.90
6462;DHT22;3264;42.862;25.098;2024-03-08T12:47:23;6.60;99.90
6462;DHT22;3264;42.862;25.098;2024-03-08T12:49:56;6.50;99.90
6462;DHT22;3264;42.862;25.098;2024-03-08T12:52:25;6.50;99.90
6462;DHT22;3264;42.862;25.098;2024-03-08T12:54:54;6.40;99.90
6462;DHT22;3264;42.862;25.098;2024-03-08T12:57:23;6.40;99.90
6462;DHT22;3264;42.862;25.098;2024-03-08T12:59:55;6.40;99.90
6462;DHT22;3264;42.862;25.098;2024-03-08T13:02:25;6.50;99.90
6462;DHT22;3264;42.862;25.098;2024-03-08T13:04:53;6.50;99.90
6462;DHT22;3264;42.862;25.098;2024-03-08T13:07:24;6.60;99.90
6462;DHT22;3264;42.862;25.098;2024-03-08T13:09:53;6.60;99.90
6462;DHT22;3264;42.862;25.098;2024-03-08T13:12:22;6.70;99.90
6462;DHT22;3264;42.862;25.098;2024-03-08T13:14:50;6.70;99.90
6462;DHT22;3264;42.862;25.098;2024-03-08T13:17:18;6.70;99.90
6462;DHT22;3264;42.862;25.098;2024-03-08T13:19:48;6.70;99.90
6462;DHT22;3264;42.862;25.098;2024-03-08T13:22:15;6.70;99.90
6462;DHT22;3264;42.862;25.098;2024-03-08T13:24:44;6.70;99.90
6462;DHT22;3264;42.862;25.098;2024-03-08T13:27:13;6.80;99.90
6462;DHT22;3264;42.862;25.098;2024-03-08T13:29:47;6.80;99.90
6462;DHT22;3264;42.862;25.098;2024-03-08T13:32:18;6.70;99.90
6462;DHT22;3264;42.862;25.098;2024-03-08T13:34:49;6.60;99.90
6462;DHT22;3264;42.862;25.098;2024-03-08T13:37:17;6.50;99.90
6462;DHT22;3264;42.862;25.098;2024-03-08T13:39:47;6.50;99.90
6462;DHT22;3264;42.862;25.098;2024-03-08T13:42:15;6.50;99.90
6462;DHT22;3264;42.862;25.098;2024-03-08T13:44:46;6.50;99.90
6462;DHT22;3264;42.862;25.098;2024-03-08T13:47:28;6.50;99.90
6462;DHT22;3264;42.862;25.098;2024-03-08T13:49:57;6.50;99.90
6462;DHT22;3264;42.862;25.098;2024-03-08T13:52:39;6.40;99.90
6462;DHT22;3264;42.862;25.098;2024-03-08T13:55:14;6.30;99.90
6462;DHT22;3264;42.862;25.098;2024-03-08T13:57:42;6.30;99.90
6462;DHT22;3264;42.862;25.098;2024-03-08T14:00:14;6.30;99.90
6462;DHT22;3264;42.862;25.098;2024-03-08T14:02:42;6.30;99.90
6462;DHT22;3264;42.862;25.098;2024-03-08T14:05:13;6.30;99.90
6462;DHT22;3264;42.862;25.098;2024-03-08T14:07:45;6.30;99.90
6462;DHT22;3264;42.862;25.098;2024-03-08T14:10:16;6.40;99.90
6462;DHT22;3264;42.862;25.098;2024-03-08T14:12:46;6.40;99.90
6462;DHT22;3264;42.862;25.098;2024-03-08T14:15:16;6.50;99.90
6462;DHT22;3264;42.862;25.098;2024-03-08T14:17:44;6.50;99.90
6462;DHT22;3264;42.862;25.098;2024-03-08T14:20:15;6.50;99.90
6462;DHT22;3264;42.862;25.098;2024-03-08T14:22:43;6.50;99.90
6462;DHT22;3264;42.862;25.098;2024-03-08T14:25:12;6.50;99.90
6462;DHT22;3264;42.862;25.098;2024-03-08T14:27:43;6.50;99.90
6462;DHT22;3264;42.862;25.098;2024-03-08T14:30:12;6.50;99.90
6462;DHT22;3264;42.862;25.098;2024-03-08T14:32:40;6.50;99.90
6462;DHT22;3264;42.862;25.098;2024-03-08T14:35:09;6.50;99.90
6462;DHT22;3264;42.862;25.098;2024-03-08T14:37:40;6.50;99.90
6462;DHT22;3264;42.862;25.098;2024-03-08T14:40:10;6.30;99.90
6462;DHT22;3264;42.862;25.098;2024-03-08T14:42:42;6.30;99.90
6462;DHT22;3264;42.862;25.098;2024-03-08T14:45:11;6.40;99.90
6462;DHT22;3264;42.862;25.098;2024-03-08T14:47:39;6.50;99.90
6462;DHT22;3264;42.862;25.098;2024-03-08T14:50:09;6.50;99.90
6462;DHT22;3264;42.862;25.098;2024-03-08T14:52:40;6.60;99.90
6462;DHT22;3264;42.862;25.098;2024-03-08T14:55:09;6.60;99.90
6462;DHT22;3264;42.862;25.098;2024-03-08T14:57:41;6.60;99.90
6462;DHT22;3264;42.862;25.098;2024-03-08T15:00:12;6.60;99.90
6462;DHT22;3264;42.862;25.098;2024-03-08T15:02:43;6.70;99.90
6462;DHT22;3264;42.862;25.098;2024-03-08T15:05:11;6.60;99.80
6462;DHT22;3264;42.862;25.098;2024-03-08T15:07:41;6.50;99.70
6462;DHT22;3264;42.862;25.098;2024-03-08T15:10:09;6.50;99.90
6462;DHT22;3264;42.862;25.098;2024-03-08T15:12:40;6.40;99.90
6462;DHT22;3264;42.862;25.098;2024-03-08T15:15:11;6.40;99.90
6462;DHT22;3264;42.862;25.098;2024-03-08T15:17:41;6.40;99.90
6462;DHT22;3264;42.862;25.098;2024-03-08T15:20:09;6.40;99.90
6462;DHT22;3264;42.862;25.098;2024-03-08T15:22:47;6.40;99.90
6462;DHT22;3264;42.862;25.098;2024-03-08T15:25:15;6.40;99.90
6462;DHT22;3264;42.862;25.098;2024-03-08T15:27:47;6.40;99.90
6462;DHT22;3264;42.862;25.098;2024-03-08T15:30:15;6.50;99.90
6462;DHT22;3264;42.862;25.098;2024-03-08T15:32:45;6.50;99.90
6462;DHT22;3264;42.862;25.098;2024-03-08T15:35:13;6.50;99.90
6462;DHT22;3264;42.862;25.098;2024-03-08T15:37:44;6.50;99.90
6462;DHT22;3264;42.862;25.098;2024-03-08T15:40:12;6.50;99.90
6462;DHT22;3264;42.862;25.098;2024-03-08T15:42:55;6.40;99.90
6462;DHT22;3264;42.862;25.098;2024-03-08T15:45:24;6.50;99.90
6462;DHT22;3264;42.862;25.098;2024-03-08T15:47:52;6.40;99.90
6462;DHT22;3264;42.862;25.098;2024-03-08T15:50:21;6.40;99.90
6462;DHT22;3264;42.862;25.098;2024-03-08T15:52:51;6.40;99.90
6462;DHT22;3264;42.862;25.098;2024-03-08T15:55:20;6.30;99.90
6462;DHT22;3264;42.862;25.098;2024-03-08T15:57:50;6.30;99.90
6462;DHT22;3264;42.862;25.098;2024-03-08T16:00:18;6.30;99.90
6462;DHT22;3264;42.862;25.098;2024-03-08T16:03:00;6.40;99.90
6462;DHT22;3264;42.862;25.098;2024-03-08T16:05:33;6.30;99.80
6462;DHT22;3264;42.862;25.098;2024-03-08T16:08:03;6.30;99.80
6462;DHT22;3264;42.862;25.098;2024-03-08T16:10:35;6.30;99.90
6462;DHT22;3264;42.862;25.098;2024-03-08T16:13:10;6.30;99.90
6462;DHT22;3264;42.862;25.098;2024-03-08T16:15:39;6.30;99.90
6462;DHT22;3264;42.862;25.098;2024-03-08T16:18:08;6.30;99.90